sensor_id;sensor_type;location;lat;lon;timestamp;P1;P2;P0
34240;PMS7003;20503;50.200;19.508;2023-05-21T00:02:05;14;13;9
34240;PMS7003;20503;50.200;19.508;2023-05-21T00:07:13;17;16;10
34240;PMS7003;20503;50.200;19.508;2023-05-21T00:12:21;13;12;10
34240;PMS7003;20503;50.200;19.508;2023-05-21T00:17:28;20;14;10
34240;PMS7003;20503;50.200;19.508;2023-05-21T00:22:36;15;13;9
34240;PMS7003;20503;50.200;19.508;2023-05-21T00:27:44;15;11;9
34240;PMS7003;20503;50.200;19.508;2023-05-21T00:32:51;13;12;9
34240;PMS7003;20503;50.200;19.508;2023-05-21T00:37:59;14;12;9
34240;PMS7003;20503;50.200;19.508;2023-05-21T00:43:07;17;14;10
34240;PMS7003;20503;50.200;19.508;2023-05-21T00:48:15;17;16;10
34240;PMS7003;20503;50.200;19.508;2023-05-21T00:53:23;14;12;8
34240;PMS7003;20503;50.200;19.508;2023-05-21T00:58:31;14;12;10
34240;PMS7003;20503;50.200;19.508;2023-05-21T01:03:39;12;12;9
34240;PMS7003;20503;50.200;19.508;2023-05-21T01:08:47;13;12;8
34240;PMS7003;20503;50.200;19.508;2023-05-21T01:13:55;12;12;8
34240;PMS7003;20503;50.200;19.508;2023-05-21T01:19:03;11;10;7
34240;PMS7003;20503;50.200;19.508;2023-05-21T01:24:10;16;13;10
34240;PMS7003;20503;50.200;19.508;2023-05-21T01:29:18;10;9;7
34240;PMS7003;20503;50.200;19.508;2023-05-21T01:34:33;12;10;9
34240;PMS7003;20503;50.200;19.508;2023-05-21T01:39:41;13;12;8
34240;PMS7003;20503;50.200;19.508;2023-05-21T01:44:48;17;12;8
34240;PMS7003;20503;50.200;19.508;2023-05-21T01:49:53;12;11;8
34240;PMS7003;20503;50.200;19.508;2023-05-21T01:54:56;12;10;7
34240;PMS7003;20503;50.200;19.508;2023-05-21T02:00:04;12;12;8
34240;PMS7003;20503;50.200;19.508;2023-05-21T02:05:12;11;10;8
34240;PMS7003;20503;50.200;19.508;2023-05-21T02:10:19;10;10;7
34240;PMS7003;20503;50.200;19.508;2023-05-21T02:15:26;10;10;9
34240;PMS7003;20503;50.200;19.508;2023-05-21T02:20:34;12;12;9
34240;PMS7003;20503;50.200;19.508;2023-05-21T02:25:42;11;11;8
34240;PMS7003;20503;50.200;19.508;2023-05-21T02:30:49;12;12;9
34240;PMS7003;20503;50.200;19.508;2023-05-21T02:35:57;20;14;8
34240;PMS7003;20503;50.200;19.508;2023-05-21T02:41:05;14;13;10
34240;PMS7003;20503;50.200;19.508;2023-05-21T02:46:13;14;12;10
34240;PMS7003;20503;50.200;19.508;2023-05-21T02:51:21;12;11;9
34240;PMS7003;20503;50.200;19.508;2023-05-21T02:56:29;12;10;8
34240;PMS7003;20503;50.200;19.508;2023-05-21T03:01:37;15;13;9
34240;PMS7003;20503;50.200;19.508;2023-05-21T03:06:46;15;10;8
34240;PMS7003;20503;50.200;19.508;2023-05-21T03:11:52;11;10;8
34240;PMS7003;20503;50.200;19.508;2023-05-21T03:17:00;10;10;9
34240;PMS7003;20503;50.200;19.508;2023-05-21T03:22:08;13;10;8
34240;PMS7003;20503;50.200;19.508;2023-05-21T03:27:16;13;11;8
34240;PMS7003;20503;50.200;19.508;2023-05-21T03:32:24;11;10;8
34240;PMS7003;20503;50.200;19.508;2023-05-21T03:37:31;11;10;8
34240;PMS7003;20503;50.200;19.508;2023-05-21T03:42:40;15;13;8
34240;PMS7003;20503;50.200;19.508;2023-05-21T03:47:47;12;11;8
34240;PMS7003;20503;50.200;19.508;2023-05-21T03:52:56;10;9;7
34240;PMS7003;20503;50.200;19.508;2023-05-21T03:58:03;10;9;7
34240;PMS7003;20503;50.200;19.508;2023-05-21T04:03:11;9;8;6
34240;PMS7003;20503;50.200;19.508;2023-05-21T04:08:19;10;8;6
34240;PMS7003;20503;50.200;19.508;2023-05-21T04:13:26;12;8;6
34240;PMS7003;20503;50.200;19.508;2023-05-21T04:18:34;10;9;6
34240;PMS7003;20503;50.200;19.508;2023-05-21T04:23:42;9;9;6
34240;PMS7003;20503;50.200;19.508;2023-05-21T04:28:50;9;8;6
34240;PMS7003;20503;50.200;19.508;2023-05-21T04:33:58;9;7;6
34240;PMS7003;20503;50.200;19.508;2023-05-21T04:39:05;7;6;5
34240;PMS7003;20503;50.200;19.508;2023-05-21T04:44:13;10;8;6
34240;PMS7003;20503;50.200;19.508;2023-05-21T04:49:21;12;8;6
34240;PMS7003;20503;50.200;19.508;2023-05-21T04:54:28;7;6;5
34240;PMS7003;20503;50.200;19.508;2023-05-21T04:59:36;9;6;5
34240;PMS7003;20503;50.200;19.508;2023-05-21T05:04:44;9;7;5
34240;PMS7003;20503;50.200;19.508;2023-05-21T05:09:52;8;6;5
34240;PMS7003;20503;50.200;19.508;2023-05-21T05:14:59;5;5;4
34240;PMS7003;20503;50.200;19.508;2023-05-21T05:20:07;6;6;4
34240;PMS7003;20503;50.200;19.508;2023-05-21T05:25:14;7;7;5
34240;PMS7003;20503;50.200;19.508;2023-05-21T05:30:22;6;5;4
34240;PMS7003;20503;50.200;19.508;2023-05-21T05:35:30;9;7;5
34240;PMS7003;20503;50.200;19.508;2023-05-21T05:40:37;7;7;5
34240;PMS7003;20503;50.200;19.508;2023-05-21T05:45:45;8;6;5
34240;PMS7003;20503;50.200;19.508;2023-05-21T05:50:52;8;7;6
34240;PMS7003;20503;50.200;19.508;2023-05-21T06:01:12;8;7;6
34240;PMS7003;20503;50.200;19.508;2023-05-21T06:06:15;5;4;4
34240;PMS7003;20503;50.200;19.508;2023-05-21T06:11:24;8;7;5
34240;PMS7003;20503;50.200;19.508;2023-05-21T06:16:31;6;6;5
34240;PMS7003;20503;50.200;19.508;2023-05-21T06:21:39;9;5;4
34240;PMS7003;20503;50.200;19.508;2023-05-21T06:26:47;8;6;5
34240;PMS7003;20503;50.200;19.508;2023-05-21T06:31:55;5;5;3
34240;PMS7003;20503;50.200;19.508;2023-05-21T06:37:03;7;6;4
34240;PMS7003;20503;50.200;19.508;2023-05-21T06:42:11;7;7;6
34240;PMS7003;20503;50.200;19.508;2023-05-21T06:47:19;9;8;6
34240;PMS7003;20503;50.200;19.508;2023-05-21T06:52:27;5;5;4
34240;PMS7003;20503;50.200;19.508;2023-05-21T06:57:36;7;6;5
34240;PMS7003;20503;50.200;19.508;2023-05-21T07:02:42;4;3;3
34240;PMS7003;20503;50.200;19.508;2023-05-21T07:07:51;4;4;3
34240;PMS7003;20503;50.200;19.508;2023-05-21T07:12:58;3;3;2
34240;PMS7003;20503;50.200;19.508;2023-05-21T07:18:08;7;6;5
34240;PMS7003;20503;50.200;19.508;2023-05-21T07:23:16;5;4;3
34240;PMS7003;20503;50.200;19.508;2023-05-21T07:28:23;6;5;4
34240;PMS7003;20503;50.200;19.508;2023-05-21T07:33:32;6;6;4
34240;PMS7003;20503;50.200;19.508;2023-05-21T07:38:40;6;4;3
34240;PMS7003;20503;50.200;19.508;2023-05-21T07:43:48;10;6;4
34240;PMS7003;20503;50.200;19.508;2023-05-21T07:48:56;4;4;3
34240;PMS7003;20503;50.200;19.508;2023-05-21T07:54:03;4;4;3
34240;PMS7003;20503;50.200;19.508;2023-05-21T07:59:15;3;3;2
34240;PMS7003;20503;50.200;19.508;2023-05-21T08:04:18;6;3;2
34240;PMS7003;20503;50.200;19.508;2023-05-21T08:09:26;6;4;3
34240;PMS7003;20503;50.200;19.508;2023-05-21T08:14:34;3;3;3
34240;PMS7003;20503;50.200;19.508;2023-05-21T08:19:42;4;4;3
34240;PMS7003;20503;50.200;19.508;2023-05-21T08:24:49;4;4;4
34240;PMS7003;20503;50.200;19.508;2023-05-21T08:29:57;4;3;3
34240;PMS7003;20503;50.200;19.508;2023-05-21T08:35:06;3;2;2
34240;PMS7003;20503;50.200;19.508;2023-05-21T08:40:13;5;4;4
34240;PMS7003;20503;50.200;19.508;2023-05-21T08:45:21;3;3;3
34240;PMS7003;20503;50.200;19.508;2023-05-21T08:50:29;2;2;2
34240;PMS7003;20503;50.200;19.508;2023-05-21T08:55:37;2;2;2
34240;PMS7003;20503;50.200;19.508;2023-05-21T09:00:45;3;3;2
34240;PMS7003;20503;50.200;19.508;2023-05-21T09:05:53;3;3;2
34240;PMS7003;20503;50.200;19.508;2023-05-21T09:11:01;3;3;2
34240;PMS7003;20503;50.200;19.508;2023-05-21T09:16:09;4;4;3
34240;PMS7003;20503;50.200;19.508;2023-05-21T09:26:27;2;2;2
34240;PMS7003;20503;50.200;19.508;2023-05-21T09:31:32;2;2;1
34240;PMS7003;20503;50.200;19.508;2023-05-21T09:36:40;3;3;2
34240;PMS7003;20503;50.200;19.508;2023-05-21T09:41:49;3;2;2
34240;PMS7003;20503;50.200;19.508;2023-05-21T09:46:56;4;3;2
34240;PMS7003;20503;50.200;19.508;2023-05-21T09:52:05;4;4;3
34240;PMS7003;20503;50.200;19.508;2023-05-21T09:57:13;3;2;1
34240;PMS7003;20503;50.200;19.508;2023-05-21T10:02:21;4;3;2
34240;PMS7003;20503;50.200;19.508;2023-05-21T10:07:29;4;4;4
34240;PMS7003;20503;50.200;19.508;2023-05-21T10:12:37;4;4;3
34240;PMS7003;20503;50.200;19.508;2023-05-21T10:17:47;3;3;3
34240;PMS7003;20503;50.200;19.508;2023-05-21T10:22:52;5;3;2
34240;PMS7003;20503;50.200;19.508;2023-05-21T10:27:59;2;2;2
34240;PMS7003;20503;50.200;19.508;2023-05-21T10:33:07;6;4;4
34240;PMS7003;20503;50.200;19.508;2023-05-21T10:38:14;3;2;1
34240;PMS7003;20503;50.200;19.508;2023-05-21T10:43:30;4;4;4
34240;PMS7003;20503;50.200;19.508;2023-05-21T10:48:41;4;4;3
34240;PMS7003;20503;50.200;19.508;2023-05-21T10:53:59;4;4;4
34240;PMS7003;20503;50.200;19.508;2023-05-21T10:59:06;4;4;3
34240;PMS7003;20503;50.200;19.508;2023-05-21T11:04:27;4;2;2
34240;PMS7003;20503;50.200;19.508;2023-05-21T11:09:29;5;5;4
34240;PMS7003;20503;50.200;19.508;2023-05-21T11:14:31;4;4;4
34240;PMS7003;20503;50.200;19.508;2023-05-21T11:19:42;5;5;4
34240;PMS7003;20503;50.200;19.508;2023-05-21T11:24:47;5;5;3
34240;PMS7003;20503;50.200;19.508;2023-05-21T11:29:49;8;5;4
34240;PMS7003;20503;50.200;19.508;2023-05-21T11:34:58;5;5;4
34240;PMS7003;20503;50.200;19.508;2023-05-21T11:45:16;7;5;4
34240;PMS7003;20503;50.200;19.508;2023-05-21T11:50:19;6;6;5
34240;PMS7003;20503;50.200;19.508;2023-05-21T11:55:22;5;5;4
34240;PMS7003;20503;50.200;19.508;2023-05-21T12:00:25;7;4;4
34240;PMS7003;20503;50.200;19.508;2023-05-21T12:05:27;7;5;4
34240;PMS7003;20503;50.200;19.508;2023-05-21T12:10:28;5;4;3
34240;PMS7003;20503;50.200;19.508;2023-05-21T12:15:35;5;5;3
34240;PMS7003;20503;50.200;19.508;2023-05-21T12:20:43;4;4;3
34240;PMS7003;20503;50.200;19.508;2023-05-21T12:25:50;5;5;4
34240;PMS7003;20503;50.200;19.508;2023-05-21T12:30:57;8;6;5
34240;PMS7003;20503;50.200;19.508;2023-05-21T12:36:05;5;5;4
34240;PMS7003;20503;50.200;19.508;2023-05-21T12:41:12;5;4;4
34240;PMS7003;20503;50.200;19.508;2023-05-21T12:46:19;6;5;4
34240;PMS7003;20503;50.200;19.508;2023-05-21T12:51:36;9;6;4
34240;PMS7003;20503;50.200;19.508;2023-05-21T12:56:45;4;4;3
34240;PMS7003;20503;50.200;19.508;2023-05-21T13:01:47;5;5;3
34240;PMS7003;20503;50.200;19.508;2023-05-21T13:06:49;4;4;4
34240;PMS7003;20503;50.200;19.508;2023-05-21T13:11:56;7;5;4
34240;PMS7003;20503;50.200;19.508;2023-05-21T13:17:04;4;4;3
34240;PMS7003;20503;50.200;19.508;2023-05-21T13:22:12;8;6;4
34240;PMS7003;20503;50.200;19.508;2023-05-21T13:27:19;5;5;5
34240;PMS7003;20503;50.200;19.508;2023-05-21T13:32:27;7;7;6
34240;PMS7003;20503;50.200;19.508;2023-05-21T13:37:34;6;6;5
34240;PMS7003;20503;50.200;19.508;2023-05-21T13:42:42;9;7;6
34240;PMS7003;20503;50.200;19.508;2023-05-21T13:47:49;7;6;5
34240;PMS7003;20503;50.200;19.508;2023-05-21T13:52:56;7;6;5
34240;PMS7003;20503;50.200;19.508;2023-05-21T13:58:04;8;7;5
34240;PMS7003;20503;50.200;19.508;2023-05-21T14:03:11;5;4;4
34240;PMS7003;20503;50.200;19.508;2023-05-21T14:08:19;7;6;5
34240;PMS7003;20503;50.200;19.508;2023-05-21T14:13:26;5;5;5
34240;PMS7003;20503;50.200;19.508;2023-05-21T14:18:34;8;6;4
34240;PMS7003;20503;50.200;19.508;2023-05-21T14:23:42;4;4;4
34240;PMS7003;20503;50.200;19.508;2023-05-21T14:28:49;4;4;3
34240;PMS7003;20503;50.200;19.508;2023-05-21T14:33:56;5;5;5
34240;PMS7003;20503;50.200;19.508;2023-05-21T14:39:03;7;4;4
34240;PMS7003;20503;50.200;19.508;2023-05-21T14:44:11;4;4;4
34240;PMS7003;20503;50.200;19.508;2023-05-21T14:49:19;4;4;4
34240;PMS7003;20503;50.200;19.508;2023-05-21T14:54:26;6;6;5
34240;PMS7003;20503;50.200;19.508;2023-05-21T14:59:34;8;6;4
34240;PMS7003;20503;50.200;19.508;2023-05-21T15:04:42;5;4;3
34240;PMS7003;20503;50.200;19.508;2023-05-21T15:09:49;3;3;3
34240;PMS7003;20503;50.200;19.508;2023-05-21T15:14:57;6;6;5
34240;PMS7003;20503;50.200;19.508;2023-05-21T15:20:05;2;2;2
34240;PMS7003;20503;50.200;19.508;2023-05-21T15:25:12;4;4;4
34240;PMS7003;20503;50.200;19.508;2023-05-21T15:30:20;5;5;4
34240;PMS7003;20503;50.200;19.508;2023-05-21T15:35:27;6;4;4
34240;PMS7003;20503;50.200;19.508;2023-05-21T15:40:34;4;4;4
34240;PMS7003;20503;50.200;19.508;2023-05-21T15:45:41;5;5;4
34240;PMS7003;20503;50.200;19.508;2023-05-21T15:50:49;7;5;4
34240;PMS7003;20503;50.200;19.508;2023-05-21T15:55:57;8;6;4
34240;PMS7003;20503;50.200;19.508;2023-05-21T16:01:04;8;6;4
34240;PMS7003;20503;50.200;19.508;2023-05-21T16:06:12;4;4;4
34240;PMS7003;20503;50.200;19.508;2023-05-21T16:11:19;5;4;3
34240;PMS7003;20503;50.200;19.508;2023-05-21T16:16:27;7;5;4
34240;PMS7003;20503;50.200;19.508;2023-05-21T16:21:34;6;5;4
34240;PMS7003;20503;50.200;19.508;2023-05-21T16:26:42;5;4;3
34240;PMS7003;20503;50.200;19.508;2023-05-21T16:31:50;7;5;5
34240;PMS7003;20503;50.200;19.508;2023-05-21T16:36:57;6;5;5
34240;PMS7003;20503;50.200;19.508;2023-05-21T16:42:05;8;6;5
34240;PMS7003;20503;50.200;19.508;2023-05-21T16:47:12;5;5;4
34240;PMS7003;20503;50.200;19.508;2023-05-21T16:56:29;8;7;6
34240;PMS7003;20503;50.200;19.508;2023-05-21T17:01:38;8;7;6
34240;PMS7003;20503;50.200;19.508;2023-05-21T17:06:44;10;7;6
34240;PMS7003;20503;50.200;19.508;2023-05-21T17:11:52;9;7;6
34240;PMS7003;20503;50.200;19.508;2023-05-21T17:17:00;8;8;6
34240;PMS7003;20503;50.200;19.508;2023-05-21T17:22:08;10;8;7
34240;PMS7003;20503;50.200;19.508;2023-05-21T17:27:16;8;7;6
34240;PMS7003;20503;50.200;19.508;2023-05-21T17:32:23;8;6;5
34240;PMS7003;20503;50.200;19.508;2023-05-21T17:37:31;5;5;5
34240;PMS7003;20503;50.200;19.508;2023-05-21T17:42:39;9;7;6
34240;PMS7003;20503;50.200;19.508;2023-05-21T17:47:47;6;6;5
34240;PMS7003;20503;50.200;19.508;2023-05-21T17:52:54;6;6;5
34240;PMS7003;20503;50.200;19.508;2023-05-21T17:58:02;7;5;4
34240;PMS7003;20503;50.200;19.508;2023-05-21T18:03:10;7;6;5
34240;PMS7003;20503;50.200;19.508;2023-05-21T18:08:17;5;5;4
34240;PMS7003;20503;50.200;19.508;2023-05-21T18:13:25;9;5;4
34240;PMS7003;20503;50.200;19.508;2023-05-21T18:18:33;7;6;4
34240;PMS7003;20503;50.200;19.508;2023-05-21T18:23:40;5;5;4
34240;PMS7003;20503;50.200;19.508;2023-05-21T18:28:49;6;5;4
34240;PMS7003;20503;50.200;19.508;2023-05-21T18:33:56;4;4;3
34240;PMS7003;20503;50.200;19.508;2023-05-21T18:39:07;6;6;5
34240;PMS7003;20503;50.200;19.508;2023-05-21T18:44:11;7;7;6
34240;PMS7003;20503;50.200;19.508;2023-05-21T18:49:19;7;6;5
34240;PMS7003;20503;50.200;19.508;2023-05-21T18:54:27;7;5;4
34240;PMS7003;20503;50.200;19.508;2023-05-21T18:59:35;6;6;4
34240;PMS7003;20503;50.200;19.508;2023-05-21T19:04:42;5;4;3
34240;PMS7003;20503;50.200;19.508;2023-05-21T19:09:50;7;4;3
34240;PMS7003;20503;50.200;19.508;2023-05-21T19:14:58;5;5;4
34240;PMS7003;20503;50.200;19.508;2023-05-21T19:20:06;3;3;3
34240;PMS7003;20503;50.200;19.508;2023-05-21T19:25:14;4;3;3
34240;PMS7003;20503;50.200;19.508;2023-05-21T19:30:22;4;4;4
34240;PMS7003;20503;50.200;19.508;2023-05-21T19:35:29;6;4;3
34240;PMS7003;20503;50.200;19.508;2023-05-21T19:40:37;3;3;2
34240;PMS7003;20503;50.200;19.508;2023-05-21T19:45:45;6;4;3
34240;PMS7003;20503;50.200;19.508;2023-05-21T19:50:53;3;3;2
34240;PMS7003;20503;50.200;19.508;2023-05-21T19:56:01;3;3;2
34240;PMS7003;20503;50.200;19.508;2023-05-21T20:01:09;7;5;3
34240;PMS7003;20503;50.200;19.508;2023-05-21T20:06:16;4;4;3
34240;PMS7003;20503;50.200;19.508;2023-05-21T20:11:24;6;4;3
34240;PMS7003;20503;50.200;19.508;2023-05-21T20:16:32;5;5;4
34240;PMS7003;20503;50.200;19.508;2023-05-21T20:21:40;3;3;3
34240;PMS7003;20503;50.200;19.508;2023-05-21T20:26:48;4;4;3
34240;PMS7003;20503;50.200;19.508;2023-05-21T20:31:56;4;3;2
34240;PMS7003;20503;50.200;19.508;2023-05-21T20:37:03;4;4;3
34240;PMS7003;20503;50.200;19.508;2023-05-21T20:42:11;3;3;2
34240;PMS7003;20503;50.200;19.508;2023-05-21T20:47:19;3;3;3
34240;PMS7003;20503;50.200;19.508;2023-05-21T20:52:28;5;3;3
34240;PMS7003;20503;50.200;19.508;2023-05-21T20:57:35;4;3;2
34240;PMS7003;20503;50.200;19.508;2023-05-21T21:02:43;5;3;2
34240;PMS7003;20503;50.200;19.508;2023-05-21T21:07:51;3;3;2
34240;PMS7003;20503;50.200;19.508;2023-05-21T21:12:59;3;3;3
34240;PMS7003;20503;50.200;19.508;2023-05-21T21:18:07;3;3;2
34240;PMS7003;20503;50.200;19.508;2023-05-21T21:23:15;4;3;3
34240;PMS7003;20503;50.200;19.508;2023-05-21T21:28:23;5;3;2
34240;PMS7003;20503;50.200;19.508;2023-05-21T21:33:31;5;2;2
34240;PMS7003;20503;50.200;19.508;2023-05-21T21:38:38;2;2;2
34240;PMS7003;20503;50.200;19.508;2023-05-21T21:43:47;3;2;1
34240;PMS7003;20503;50.200;19.508;2023-05-21T21:48:54;4;2;2
34240;PMS7003;20503;50.200;19.508;2023-05-21T21:54:02;2;2;2
34240;PMS7003;20503;50.200;19.508;2023-05-21T21:59:10;3;2;2
34240;PMS7003;20503;50.200;19.508;2023-05-21T22:04:18;1;1;1
34240;PMS7003;20503;50.200;19.508;2023-05-21T22:09:26;2;2;2
34240;PMS7003;20503;50.200;19.508;2023-05-21T22:14:34;3;2;1
34240;PMS7003;20503;50.200;19.508;2023-05-21T22:19:45;5;2;2
34240;PMS7003;20503;50.200;19.508;2023-05-21T22:24:51;3;2;1
34240;PMS7003;20503;50.200;19.508;2023-05-21T22:29:58;2;2;2
34240;PMS7003;20503;50.200;19.508;2023-05-21T22:35:06;2;2;1
34240;PMS7003;20503;50.200;19.508;2023-05-21T22:40:14;2;2;2
34240;PMS7003;20503;50.200;19.508;2023-05-21T22:45:22;2;1;0
34240;PMS7003;20503;50.200;19.508;2023-05-21T22:50:30;4;1;1
34240;PMS7003;20503;50.200;19.508;2023-05-21T22:55:38;2;2;2
34240;PMS7003;20503;50.200;19.508;2023-05-21T23:00:46;4;2;1
34240;PMS7003;20503;50.200;19.508;2023-05-21T23:05:54;4;3;1
34240;PMS7003;20503;50.200;19.508;2023-05-21T23:11:02;2;2;1
34240;PMS7003;20503;50.200;19.508;2023-05-21T23:16:11;4;2;1
34240;PMS7003;20503;50.200;19.508;2023-05-21T23:21:18;2;2;1
34240;PMS7003;20503;50.200;19.508;2023-05-21T23:26:26;3;1;1
34240;PMS7003;20503;50.200;19.508;2023-05-21T23:31:34;2;1;1
34240;PMS7003;20503;50.200;19.508;2023-05-21T23:36:42;6;2;2
34240;PMS7003;20503;50.200;19.508;2023-05-21T23:41:50;2;1;1
34240;PMS7003;20503;50.200;19.508;2023-05-21T23:46:58;0;0;0
34240;PMS7003;20503;50.200;19.508;2023-05-21T23:52:06;2;2;1
34240;PMS7003;20503;50.200;19.508;2023-05-21T23:57:14;3;2;1
